createdAt,value
2022-08-04T00:00:59.501Z,2.60
2022-08-04T00:03:41.173Z,2.80
2022-08-04T00:06:16.922Z,2.50
2022-08-04T00:08:50.571Z,2.75
2022-08-04T00:11:22.483Z,2.97
2022-08-04T00:14:04.992Z,3.08
2022-08-04T00:16:37.796Z,2.80
2022-08-04T00:19:11.798Z,3.08
2022-08-04T00:21:42.010Z,2.70
2022-08-04T00:24:14.458Z,2.92
2022-08-04T00:26:41.899Z,3.22
2022-08-04T00:29:08.552Z,3.38
2022-08-04T00:31:56.475Z,3.10
2022-08-04T00:34:27.242Z,2.90
2022-08-04T00:36:54.449Z,2.60
2022-08-04T00:39:21.388Z,3.08
2022-08-04T00:42:24.461Z,2.95
2022-08-04T00:45:09.609Z,2.85
2022-08-04T00:47:50.886Z,3.08
2022-08-04T00:50:44.078Z,2.78
2022-08-04T00:53:49.961Z,2.90
2022-08-04T00:58:52.205Z,2.50
2022-08-04T01:01:37.598Z,3.30
2022-08-04T01:06:58.674Z,2.38
2022-08-04T01:09:45.423Z,3.22
2022-08-04T01:12:33.647Z,3.00
2022-08-04T01:15:06.810Z,2.92
2022-08-04T01:17:36.449Z,2.90
2022-08-04T01:20:08.979Z,2.85
2022-08-04T01:23:10.121Z,2.88
2022-08-04T01:25:54.150Z,2.97
2022-08-04T01:28:30.984Z,2.50
2022-08-04T01:34:03.257Z,2.72
2022-08-04T01:36:24.890Z,2.65
2022-08-04T01:38:54.140Z,3.05
2022-08-04T01:41:32.223Z,3.30
2022-08-04T01:44:04.301Z,2.70
2022-08-04T01:46:33.869Z,2.80
2022-08-04T01:49:02.686Z,3.20
2022-08-04T01:51:34.986Z,2.97
2022-08-04T01:54:09.220Z,3.28
2022-08-04T01:56:36.747Z,3.27
2022-08-04T01:59:03.874Z,3.13
2022-08-04T02:01:36.519Z,3.30
2022-08-04T02:04:21.504Z,3.42
2022-08-04T02:06:59.253Z,3.28
2022-08-04T02:09:28.786Z,3.15
2022-08-04T02:12:03.798Z,3.40
2022-08-04T02:15:13.798Z,3.38
2022-08-04T02:17:43.391Z,4.25
2022-08-04T02:20:23.162Z,3.35
2022-08-04T02:22:54.990Z,3.40
2022-08-04T02:25:26.872Z,3.58
2022-08-04T02:28:28.162Z,3.85
2022-08-04T02:30:57.289Z,3.38
2022-08-04T02:33:38.690Z,3.03
2022-08-04T02:36:09.273Z,3.53
2022-08-04T02:39:00.120Z,3.65
2022-08-04T02:41:28.917Z,3.90
2022-08-04T02:44:02.283Z,3.97
2022-08-04T02:46:29.898Z,3.90
2022-08-04T02:48:57.315Z,3.80
2022-08-04T02:51:28.833Z,4.00
2022-08-04T02:54:01.689Z,3.50
2022-08-04T02:56:31.530Z,3.63
2022-08-04T02:59:03.778Z,3.95
2022-08-04T03:01:31.572Z,3.58
2022-08-04T03:04:24.689Z,3.63
2022-08-04T03:07:22.975Z,4.07
2022-08-04T03:10:10.632Z,4.03
2022-08-04T03:13:01.831Z,4.00
2022-08-04T03:15:46.446Z,4.07
2022-08-04T03:18:31.839Z,4.03
2022-08-04T03:21:36.918Z,3.83
2022-08-04T03:24:26.628Z,3.97
2022-08-04T03:27:10.874Z,3.92
2022-08-04T03:29:56.246Z,3.67
2022-08-04T03:32:41.575Z,3.97
2022-08-04T03:35:32.821Z,3.40
2022-08-04T03:38:17.528Z,3.65
2022-08-04T03:41:57.391Z,3.85
2022-08-04T03:44:38.950Z,3.65
2022-08-04T03:47:29.949Z,4.07
2022-08-04T03:50:12.997Z,3.35
2022-08-04T03:53:20.389Z,3.63
2022-08-04T03:55:54.722Z,3.35
2022-08-04T03:58:40.542Z,3.88
2022-08-04T04:01:13.262Z,3.80
2022-08-04T04:04:18.102Z,3.58
2022-08-04T04:07:35.690Z,3.53
2022-08-04T04:13:33.005Z,3.22
2022-08-04T04:16:26.451Z,3.53
2022-08-04T04:19:20.523Z,3.28
2022-08-04T04:22:11.692Z,3.50
2022-08-04T04:25:03.451Z,3.38
2022-08-04T04:28:44.456Z,3.55
2022-08-04T04:31:27.924Z,3.17
2022-08-04T04:34:16.946Z,3.28
2022-08-04T04:37:17.712Z,3.33
2022-08-04T04:40:06.161Z,3.00
2022-08-04T04:42:35.425Z,3.50
2022-08-04T04:45:21.030Z,4.28
2022-08-04T04:48:08.257Z,4.30
2022-08-04T04:50:46.330Z,4.03
2022-08-04T04:53:45.103Z,3.70
2022-08-04T04:56:39.528Z,3.47
2022-08-04T04:59:11.431Z,4.20
2022-08-04T05:02:00.866Z,4.93
2022-08-04T05:05:04.907Z,5.28
2022-08-04T05:07:40.231Z,5.00
2022-08-04T05:10:33.626Z,5.43
2022-08-04T05:14:36.438Z,5.47
2022-08-04T05:16:35.076Z,5.05
2022-08-04T05:19:23.313Z,5.53
2022-08-04T05:22:04.277Z,6.18
2022-08-04T05:24:37.634Z,4.70
2022-08-04T05:27:12.090Z,4.93
2022-08-04T05:29:47.103Z,4.15
2022-08-04T05:32:16.820Z,5.18
2022-08-04T05:34:54.087Z,5.32
2022-08-04T05:37:22.630Z,5.03
2022-08-04T05:40:04.486Z,5.05
2022-08-04T05:42:34.869Z,5.20
2022-08-04T05:45:03.153Z,5.60
2022-08-04T05:47:32.017Z,5.90
2022-08-04T05:50:02.021Z,6.25
2022-08-04T05:52:31.572Z,5.68
2022-08-04T05:54:59.573Z,6.90
2022-08-04T05:57:26.828Z,5.78
2022-08-04T05:59:58.785Z,6.90
2022-08-04T06:02:27.918Z,7.57
2022-08-04T06:04:56.489Z,7.68
2022-08-04T06:07:23.364Z,7.97
2022-08-04T06:09:51.069Z,7.93
2022-08-04T06:13:00.869Z,6.97
2022-08-04T06:15:28.386Z,7.47
2022-08-04T06:19:40.149Z,6.93
2022-08-04T06:20:53.092Z,6.68
2022-08-04T06:23:26.065Z,7.53
2022-08-04T06:25:57.080Z,7.47
2022-08-04T06:28:24.732Z,7.80
2022-08-04T06:30:53.076Z,7.78
2022-08-04T06:33:54.485Z,7.10
2022-08-04T06:36:20.770Z,7.38
2022-08-04T06:38:47.827Z,7.10
2022-08-04T06:41:25.765Z,7.50
2022-08-04T06:43:53.951Z,7.95
2022-08-04T06:46:21.453Z,7.75
2022-08-04T06:48:50.790Z,7.90
2022-08-04T06:51:28.658Z,7.45
2022-08-04T06:54:04.805Z,7.20
2022-08-04T06:56:35.041Z,6.78
2022-08-04T06:59:03.577Z,6.78
2022-08-04T07:01:31.111Z,5.47
2022-08-04T07:04:01.114Z,5.35
2022-08-04T07:06:27.819Z,5.60
2022-08-04T07:08:56.386Z,5.72
2022-08-04T07:11:24.851Z,4.80
2022-08-04T07:13:53.786Z,5.10
2022-08-04T07:16:22.010Z,5.43
2022-08-04T07:18:57.667Z,5.20
2022-08-04T07:21:24.877Z,5.55
2022-08-04T07:23:53.950Z,5.28
2022-08-04T07:26:26.410Z,6.18
2022-08-04T07:28:53.006Z,6.55
2022-08-04T07:31:34.593Z,7.20
2022-08-04T07:34:21.083Z,7.75
2022-08-04T07:36:53.002Z,8.48
2022-08-04T07:39:29.636Z,8.33
2022-08-04T07:41:59.043Z,7.30
2022-08-04T07:44:27.918Z,7.82
2022-08-04T07:46:55.099Z,7.20
2022-08-04T07:49:56.571Z,7.60
2022-08-04T07:52:08.788Z,7.13
2022-08-04T07:54:40.008Z,7.47
2022-08-04T07:57:06.700Z,6.55
2022-08-04T07:59:35.202Z,6.93
2022-08-04T08:02:02.563Z,8.15
2022-08-04T08:04:30.063Z,6.47
2022-08-04T08:06:57.716Z,6.10
2022-08-04T08:09:24.568Z,5.30
2022-08-04T08:12:35.441Z,6.80
2022-08-04T08:14:41.385Z,4.85
2022-08-04T08:17:08.166Z,5.72
2022-08-04T08:19:35.653Z,4.43
2022-08-04T08:22:02.883Z,4.63
2022-08-04T08:24:32.509Z,4.80
2022-08-04T08:27:00.296Z,4.68
2022-08-04T08:29:29.599Z,4.28
2022-08-04T08:32:01.482Z,4.68
2022-08-04T08:34:33.016Z,4.43
2022-08-04T08:37:09.701Z,4.13
2022-08-04T08:39:43.018Z,4.13
2022-08-04T08:42:34.234Z,4.10
2022-08-04T08:45:26.247Z,5.05
2022-08-04T08:48:31.358Z,4.93
2022-08-04T08:51:47.683Z,5.47
2022-08-04T08:54:35.784Z,5.13
2022-08-04T08:57:17.310Z,5.88
2022-08-04T09:00:07.464Z,5.35
2022-08-04T09:02:44.896Z,4.70
2022-08-04T09:05:36.521Z,4.55
2022-08-04T09:08:08.878Z,4.63
2022-08-04T09:11:05.894Z,4.43
2022-08-04T09:13:41.578Z,5.80
2022-08-04T09:16:19.153Z,4.50
2022-08-04T09:19:04.461Z,4.80
2022-08-04T09:21:41.958Z,6.57
2022-08-04T09:24:36.449Z,6.85
2022-08-04T09:27:09.842Z,5.80
2022-08-04T09:29:39.324Z,7.30
2022-08-04T09:32:41.353Z,6.47
2022-08-04T09:35:33.790Z,5.72
2022-08-04T09:38:19.177Z,6.40
2022-08-04T09:40:53.449Z,5.85
2022-08-04T09:44:43.103Z,5.53
2022-08-04T09:47:10.590Z,4.55
2022-08-04T09:49:43.722Z,4.10
2022-08-04T09:52:25.397Z,5.00
2022-08-04T09:55:20.837Z,3.67
2022-08-04T09:57:58.190Z,4.07
2022-08-04T10:00:40.435Z,3.83
2022-08-04T10:03:19.669Z,3.30
2022-08-04T10:05:55.823Z,3.00
2022-08-04T10:08:57.162Z,3.00
2022-08-04T10:11:55.579Z,3.67
2022-08-04T10:14:48.003Z,2.80
2022-08-04T10:17:35.883Z,2.40
2022-08-04T10:20:44.296Z,2.05
2022-08-04T10:23:55.082Z,2.35
2022-08-04T10:26:26.191Z,2.40
2022-08-04T10:29:02.492Z,3.50
2022-08-04T10:31:35.519Z,2.92
2022-08-04T10:34:29.600Z,2.60
2022-08-04T10:37:04.367Z,2.35
2022-08-04T10:40:06.956Z,2.40
2022-08-04T10:42:37.422Z,1.85
2022-08-04T10:45:19.769Z,1.95
2022-08-04T10:48:02.481Z,2.72
2022-08-04T10:50:29.977Z,2.35
2022-08-04T10:53:03.563Z,2.85
2022-08-04T10:56:06.450Z,3.00
2022-08-04T10:58:59.910Z,2.80
2022-08-04T11:01:50.742Z,2.83
2022-08-04T11:04:37.715Z,3.60
2022-08-04T11:07:04.867Z,3.40
2022-08-04T11:09:33.944Z,3.22
2022-08-04T11:12:12.810Z,3.92
2022-08-04T11:14:53.280Z,4.43
2022-08-04T11:17:26.236Z,4.38
2022-08-04T11:23:13.994Z,3.40
2022-08-04T11:25:52.971Z,4.22
2022-08-04T11:28:30.549Z,3.95
2022-08-04T11:31:05.691Z,3.55
2022-08-04T11:34:16.046Z,4.38
2022-08-04T11:37:14.014Z,4.97
2022-08-04T11:39:47.303Z,4.47
2022-08-04T11:42:22.019Z,4.43
2022-08-04T11:45:04.848Z,4.70
2022-08-04T11:47:54.427Z,4.75
2022-08-04T11:50:27.493Z,3.88
2022-08-04T11:52:57.828Z,4.07
2022-08-04T11:55:27.087Z,3.38
2022-08-04T11:57:54.881Z,3.35
2022-08-04T12:00:22.712Z,3.45
2022-08-04T12:03:18.704Z,2.03
2022-08-04T12:06:15.660Z,2.33
2022-08-04T12:09:22.270Z,1.70
2022-08-04T12:12:13.761Z,2.17
2022-08-04T12:14:55.214Z,1.65
2022-08-04T12:17:53.448Z,1.60
2022-08-04T12:20:32.194Z,1.30
2022-08-04T12:23:17.488Z,1.27
2022-08-04T12:25:47.753Z,1.17
2022-08-04T12:28:23.383Z,1.63
2022-08-04T12:31:01.050Z,1.20
2022-08-04T12:34:04.423Z,1.42
2022-08-04T12:36:37.324Z,2.38
2022-08-04T12:39:15.783Z,1.90
2022-08-04T12:42:02.327Z,1.83
2022-08-04T12:44:37.710Z,2.10
2022-08-04T12:47:26.592Z,1.90
2022-08-04T12:50:02.300Z,2.15
2022-08-04T12:53:04.349Z,2.42
2022-08-04T12:55:35.131Z,2.30
2022-08-04T12:58:04.177Z,2.50
2022-08-04T13:00:40.808Z,2.70
2022-08-04T13:03:16.934Z,3.30
2022-08-04T13:05:45.085Z,2.97
2022-08-04T13:08:12.911Z,3.22
2022-08-04T13:10:47.824Z,3.47
2022-08-04T13:13:29.008Z,3.17
2022-08-04T13:16:00.493Z,4.60
2022-08-04T13:18:32.045Z,5.22
2022-08-04T13:21:20.108Z,4.80
2022-08-04T13:24:10.560Z,4.18
2022-08-04T13:26:55.257Z,4.85
2022-08-04T13:30:00.574Z,4.25
2022-08-04T13:32:22.229Z,3.92
2022-08-04T13:34:52.782Z,3.83
2022-08-04T13:37:26.752Z,4.50
2022-08-04T13:39:56.404Z,4.30
2022-08-04T13:42:26.513Z,3.97
2022-08-04T13:44:59.651Z,3.35
2022-08-04T13:47:34.036Z,4.00
2022-08-04T13:50:22.506Z,3.65
2022-08-04T13:52:59.354Z,4.05
2022-08-04T13:55:35.160Z,4.30
2022-08-04T13:58:09.240Z,4.00
2022-08-04T14:00:44.108Z,4.10
2022-08-04T14:03:24.140Z,4.13
2022-08-04T14:06:19.147Z,3.65
2022-08-04T14:08:51.701Z,3.60
2022-08-04T14:12:08.881Z,3.15
2022-08-04T14:14:33.801Z,2.40
2022-08-04T14:17:19.965Z,2.55
2022-08-04T14:19:47.705Z,2.63
2022-08-04T14:22:26.565Z,3.05
2022-08-04T14:25:15.811Z,3.25
2022-08-04T14:27:43.179Z,3.20
2022-08-04T14:30:32.170Z,3.03
2022-08-04T14:33:59.622Z,3.20
2022-08-04T14:36:04.182Z,3.85
2022-08-04T14:38:57.370Z,3.63
2022-08-04T14:41:29.569Z,3.88
2022-08-04T14:44:02.375Z,3.53
2022-08-04T14:46:37.015Z,4.10
2022-08-04T14:49:03.748Z,3.53
2022-08-04T14:51:55.256Z,3.25
2022-08-04T14:54:30.572Z,4.10
2022-08-04T14:57:08.670Z,3.65
2022-08-04T14:59:59.464Z,2.83
2022-08-04T15:02:30.041Z,3.40
2022-08-04T15:04:57.785Z,2.50
2022-08-04T15:07:25.478Z,3.60
2022-08-04T15:09:52.466Z,3.63
2022-08-04T15:12:20.273Z,3.40
2022-08-04T15:14:48.634Z,2.90
2022-08-04T15:17:30.220Z,3.72
2022-08-04T15:19:57.262Z,3.13
2022-08-04T15:22:24.079Z,3.88
2022-08-04T15:24:56.033Z,3.08
2022-08-04T15:27:32.507Z,3.55
2022-08-04T15:30:08.323Z,3.13
2022-08-04T15:32:38.421Z,2.70
2022-08-04T15:35:13.585Z,2.50
2022-08-04T15:37:49.485Z,3.03
2022-08-04T15:40:33.311Z,3.22
2022-08-04T15:43:29.941Z,2.85
2022-08-04T15:46:30.759Z,3.13
2022-08-04T15:48:47.341Z,3.33
2022-08-04T15:51:31.794Z,2.30
2022-08-04T15:54:02.528Z,2.20
2022-08-04T15:56:30.819Z,1.65
2022-08-04T15:58:57.651Z,1.50
2022-08-04T16:01:24.834Z,1.60
2022-08-04T16:04:25.130Z,1.60
2022-08-04T16:07:04.055Z,1.67
2022-08-04T16:09:45.139Z,2.42
2022-08-04T16:12:54.749Z,2.45
2022-08-04T16:15:56.132Z,2.20
2022-08-04T16:18:30.272Z,2.30
2022-08-04T16:21:03.903Z,2.15
2022-08-04T16:23:56.828Z,2.25
2022-08-04T16:26:45.259Z,1.65
2022-08-04T16:29:24.819Z,1.80
2022-08-04T16:32:12.636Z,1.70
2022-08-04T16:34:54.665Z,2.15
2022-08-04T16:37:29.069Z,2.58
2022-08-04T16:40:37.625Z,2.80
2022-08-04T16:43:16.752Z,3.10
2022-08-04T16:45:55.498Z,2.65
2022-08-04T16:48:29.116Z,2.60
2022-08-04T16:51:03.233Z,2.75
2022-08-04T16:54:02.870Z,2.67
2022-08-04T16:56:36.164Z,2.55
2022-08-04T16:59:11.485Z,1.70
2022-08-04T17:01:49.989Z,1.60
2022-08-04T17:04:36.561Z,1.77
2022-08-04T17:07:06.289Z,1.95
2022-08-04T17:09:33.219Z,2.40
2022-08-04T17:12:02.235Z,2.75
2022-08-04T17:14:31.348Z,2.70
2022-08-04T17:17:01.141Z,3.10
2022-08-04T17:19:27.872Z,3.20
2022-08-04T17:22:03.040Z,2.70
2022-08-04T17:24:35.084Z,3.03
2022-08-04T17:27:01.877Z,2.42
2022-08-04T17:29:42.884Z,2.53
2022-08-04T17:32:20.966Z,2.30
2022-08-04T17:35:03.586Z,3.10
2022-08-04T17:37:39.439Z,2.20
2022-08-04T17:40:11.272Z,2.28
2022-08-04T17:42:41.682Z,2.40
2022-08-04T17:48:00.772Z,1.67
2022-08-04T17:50:35.885Z,1.77
2022-08-04T17:53:11.713Z,1.40
2022-08-04T17:55:47.150Z,1.35
2022-08-04T17:58:26.851Z,1.45
2022-08-04T18:03:52.809Z,1.80
2022-08-04T18:06:23.391Z,1.65
2022-08-04T18:08:58.188Z,1.52
2022-08-04T18:11:29.785Z,2.05
2022-08-04T18:14:09.801Z,1.45
2022-08-04T18:16:45.295Z,1.80
2022-08-04T18:19:19.038Z,1.73
2022-08-04T18:21:59.585Z,1.52
2022-08-04T18:24:35.292Z,1.50
2022-08-04T18:27:22.324Z,1.65
2022-08-04T18:30:33.347Z,1.60
2022-08-04T18:32:56.426Z,1.50
2022-08-04T18:36:31.285Z,1.38
2022-08-04T18:38:22.662Z,1.70
2022-08-04T18:40:52.800Z,1.63
2022-08-04T18:43:28.547Z,1.70
2022-08-04T18:45:59.558Z,1.90
2022-08-04T18:48:35.912Z,1.40
2022-08-04T18:51:10.801Z,1.85
2022-08-04T18:56:36.723Z,1.55
2022-08-04T18:59:10.251Z,2.15
2022-08-04T19:02:16.352Z,1.52
2022-08-04T19:04:33.098Z,1.85
2022-08-04T19:07:24.479Z,1.88
2022-08-04T19:09:51.933Z,1.40
2022-08-04T19:12:26.675Z,1.90
2022-08-04T19:14:57.995Z,1.40
2022-08-04T19:17:52.525Z,1.50
2022-08-04T19:20:16.049Z,1.40
2022-08-04T19:24:28.648Z,1.30
2022-08-04T19:25:58.618Z,1.70
2022-08-04T19:28:33.944Z,1.60
2022-08-04T19:31:01.782Z,1.38
2022-08-04T19:33:30.438Z,1.40
2022-08-04T19:36:20.860Z,1.33
2022-08-04T19:38:58.147Z,1.48
2022-08-04T19:41:26.499Z,1.30
2022-08-04T19:43:54.470Z,1.65
2022-08-04T19:46:21.525Z,1.27
2022-08-04T19:48:59.021Z,1.50
2022-08-04T19:54:02.446Z,2.00
2022-08-04T19:56:39.855Z,1.42
2022-08-04T19:59:10.914Z,1.25
2022-08-04T20:01:44.184Z,1.33
2022-08-04T20:04:12.833Z,1.38
2022-08-04T20:06:39.735Z,1.45
2022-08-04T20:09:24.459Z,1.38
2022-08-04T20:11:54.155Z,1.42
2022-08-04T20:14:32.525Z,1.55
2022-08-04T20:17:10.299Z,1.73
2022-08-04T20:19:38.061Z,2.17
2022-08-04T20:22:05.120Z,1.85
2022-08-04T20:24:46.921Z,2.22
2022-08-04T20:27:18.731Z,1.90
2022-08-04T20:29:49.890Z,1.92
2022-08-04T20:32:22.201Z,2.17
2022-08-04T20:34:53.307Z,1.95
2022-08-04T20:37:23.395Z,2.15
2022-08-04T20:39:56.094Z,1.90
2022-08-04T20:42:27.141Z,1.60
2022-08-04T20:45:02.593Z,1.42
2022-08-04T20:47:35.069Z,1.77
2022-08-04T20:50:09.480Z,1.50
2022-08-04T20:52:37.209Z,2.00
2022-08-04T20:55:05.565Z,2.28
2022-08-04T20:57:48.615Z,2.30
2022-08-04T21:00:17.645Z,3.17
2022-08-04T21:02:59.356Z,2.85
2022-08-04T21:05:26.697Z,3.67
2022-08-04T21:07:56.641Z,3.10
2022-08-04T21:10:27.043Z,2.55
2022-08-04T21:12:57.927Z,3.00
2022-08-04T21:15:26.293Z,3.15
2022-08-04T21:18:13.480Z,3.03
2022-08-04T21:20:42.858Z,3.42
2022-08-04T21:23:12.127Z,3.20
2022-08-04T21:25:42.781Z,3.22
2022-08-04T21:28:10.599Z,3.50
2022-08-04T21:30:54.592Z,3.00
2022-08-04T21:33:50.238Z,3.72
2022-08-04T21:36:16.102Z,3.30
2022-08-04T21:38:51.062Z,3.90
2022-08-04T21:41:20.383Z,3.60
2022-08-04T21:43:55.851Z,4.03
2022-08-04T21:46:22.668Z,3.85
2022-08-04T21:48:49.593Z,3.45
2022-08-04T21:51:21.772Z,3.67
2022-08-04T21:54:14.924Z,3.47
2022-08-04T21:56:51.570Z,3.42
2022-08-04T21:59:23.743Z,3.60
2022-08-04T22:01:57.916Z,3.67
2022-08-04T22:04:29.435Z,4.15
2022-08-04T22:06:56.135Z,3.63
2022-08-04T22:09:22.693Z,4.53
2022-08-04T22:11:51.791Z,3.95
2022-08-04T22:14:29.493Z,3.75
2022-08-04T22:17:02.624Z,4.05
2022-08-04T22:19:40.916Z,3.88
2022-08-04T22:22:25.217Z,4.00
2022-08-04T22:24:55.139Z,4.18
2022-08-04T22:27:43.868Z,4.15
2022-08-04T22:30:17.103Z,3.95
2022-08-04T22:33:03.469Z,4.20
2022-08-04T22:38:24.233Z,4.60
2022-08-04T22:41:03.709Z,4.07
2022-08-04T22:43:34.645Z,3.90
2022-08-04T22:46:12.100Z,3.65
2022-08-04T22:48:39.882Z,4.13
2022-08-04T22:51:10.082Z,4.13
2022-08-04T22:53:41.949Z,4.00
2022-08-04T22:56:16.383Z,4.07
2022-08-04T22:59:03.099Z,4.28
2022-08-04T23:01:58.090Z,4.22
2022-08-04T23:04:16.874Z,4.07
2022-08-04T23:06:43.492Z,4.50
2022-08-04T23:09:15.911Z,4.70
2022-08-04T23:11:43.399Z,3.80
2022-08-04T23:14:12.493Z,3.70
2022-08-04T23:16:40.643Z,3.92
2022-08-04T23:19:12.197Z,3.97
2022-08-04T23:21:47.641Z,4.63
2022-08-04T23:24:30.404Z,4.55
2022-08-04T23:26:58.990Z,4.70
2022-08-04T23:29:25.493Z,4.03
2022-08-04T23:32:00.254Z,3.95
2022-08-04T23:34:31.419Z,4.20
2022-08-04T23:36:59.103Z,4.82
2022-08-04T23:39:26.215Z,4.20
2022-08-04T23:42:15.110Z,4.63
2022-08-04T23:44:48.614Z,4.43
2022-08-04T23:48:15.738Z,4.20
2022-08-04T23:50:01.763Z,4.78
2022-08-04T23:52:30.914Z,4.72
2022-08-04T23:55:01.104Z,4.90
2022-08-04T23:58:02.614Z,5.18
